sensor_id;sensor_type;location;lat;lon;timestamp;P1;durP1;ratioP1;P2;durP2;ratioP2
31978;SDS011;18502;43.574;1.276;2023-01-26T06:29:46;46.40;;;14.73;;
31978;SDS011;18502;43.574;1.276;2023-01-26T06:32:12;40.20;;;12.85;;
31978;SDS011;18502;43.574;1.276;2023-01-26T18:17:24;24.58;;;13.27;;
31978;SDS011;18502;43.574;1.276;2023-01-26T18:19:49;28.60;;;15.48;;
31978;SDS011;18502;43.574;1.276;2023-01-26T18:22:15;33.08;;;16.70;;
31978;SDS011;18502;43.574;1.276;2023-01-26T18:24:41;40.03;;;19.45;;
31978;SDS011;18502;43.574;1.276;2023-01-26T18:27:06;36.85;;;16.52;;
31978;SDS011;18502;43.574;1.276;2023-01-26T18:29:32;29.70;;;15.50;;
31978;SDS011;18502;43.574;1.276;2023-01-26T18:31:58;29.30;;;15.23;;
31978;SDS011;18502;43.574;1.276;2023-01-26T18:34:23;28.48;;;15.50;;
31978;SDS011;18502;43.574;1.276;2023-01-26T18:36:49;31.30;;;18.92;;
31978;SDS011;18502;43.574;1.276;2023-01-26T18:39:15;48.42;;;28.35;;
31978;SDS011;18502;43.574;1.276;2023-01-26T18:41:41;25.98;;;14.70;;
31978;SDS011;18502;43.574;1.276;2023-01-26T18:44:07;26.20;;;14.00;;
31978;SDS011;18502;43.574;1.276;2023-01-26T18:46:33;25.88;;;15.35;;
31978;SDS011;18502;43.574;1.276;2023-01-26T18:48:59;26.40;;;14.27;;
31978;SDS011;18502;43.574;1.276;2023-01-26T18:51:29;23.27;;;12.77;;
31978;SDS011;18502;43.574;1.276;2023-01-26T18:53:56;22.13;;;12.68;;
31978;SDS011;18502;43.574;1.276;2023-01-26T18:56:22;25.60;;;14.68;;
31978;SDS011;18502;43.574;1.276;2023-01-26T18:58:50;24.02;;;12.55;;
31978;SDS011;18502;43.574;1.276;2023-01-26T19:01:17;20.20;;;11.25;;
31978;SDS011;18502;43.574;1.276;2023-01-26T19:03:45;22.40;;;11.75;;
31978;SDS011;18502;43.574;1.276;2023-01-26T19:06:12;23.13;;;12.45;;
31978;SDS011;18502;43.574;1.276;2023-01-26T19:08:45;21.40;;;12.98;;
31978;SDS011;18502;43.574;1.276;2023-01-26T19:11:15;24.25;;;15.07;;
31978;SDS011;18502;43.574;1.276;2023-01-26T19:13:41;20.23;;;10.70;;
31978;SDS011;18502;43.574;1.276;2023-01-26T19:16:10;26.70;;;15.85;;
31978;SDS011;18502;43.574;1.276;2023-01-26T19:18:36;31.65;;;17.17;;
31978;SDS011;18502;43.574;1.276;2023-01-26T19:21:02;45.03;;;24.10;;
31978;SDS011;18502;43.574;1.276;2023-01-26T19:23:29;27.17;;;12.80;;
31978;SDS011;18502;43.574;1.276;2023-01-26T19:25:54;18.38;;;10.65;;
31978;SDS011;18502;43.574;1.276;2023-01-26T19:28:21;25.45;;;14.50;;
31978;SDS011;18502;43.574;1.276;2023-01-26T19:30:46;25.45;;;15.23;;
31978;SDS011;18502;43.574;1.276;2023-01-26T19:33:12;32.83;;;17.55;;
31978;SDS011;18502;43.574;1.276;2023-01-26T19:35:52;25.15;;;15.50;;
31978;SDS011;18502;43.574;1.276;2023-01-26T19:38:18;31.17;;;19.02;;
31978;SDS011;18502;43.574;1.276;2023-01-26T19:40:44;19.40;;;11.18;;
31978;SDS011;18502;43.574;1.276;2023-01-26T19:43:12;24.08;;;13.27;;
31978;SDS011;18502;43.574;1.276;2023-01-26T19:45:38;18.33;;;9.85;;
31978;SDS011;18502;43.574;1.276;2023-01-26T19:48:04;21.65;;;13.00;;
31978;SDS011;18502;43.574;1.276;2023-01-26T19:50:30;22.45;;;12.18;;
31978;SDS011;18502;43.574;1.276;2023-01-26T19:52:56;19.48;;;11.10;;
31978;SDS011;18502;43.574;1.276;2023-01-26T19:55:22;21.45;;;12.38;;
31978;SDS011;18502;43.574;1.276;2023-01-26T19:57:48;21.83;;;12.20;;
31978;SDS011;18502;43.574;1.276;2023-01-26T20:00:13;27.52;;;15.35;;
31978;SDS011;18502;43.574;1.276;2023-01-26T20:02:39;22.52;;;13.88;;
31978;SDS011;18502;43.574;1.276;2023-01-26T20:05:05;22.42;;;13.45;;
31978;SDS011;18502;43.574;1.276;2023-01-26T20:07:32;19.27;;;11.68;;
31978;SDS011;18502;43.574;1.276;2023-01-26T20:09:58;23.75;;;15.30;;
31978;SDS011;18502;43.574;1.276;2023-01-26T20:12:23;15.13;;;9.50;;
31978;SDS011;18502;43.574;1.276;2023-01-26T20:14:49;17.73;;;10.13;;
31978;SDS011;18502;43.574;1.276;2023-01-26T20:17:17;17.60;;;10.07;;
31978;SDS011;18502;43.574;1.276;2023-01-26T20:19:42;14.48;;;8.23;;
31978;SDS011;18502;43.574;1.276;2023-01-26T20:22:08;17.25;;;9.98;;
31978;SDS011;18502;43.574;1.276;2023-01-26T20:24:35;16.63;;;11.13;;
31978;SDS011;18502;43.574;1.276;2023-01-26T20:27:02;16.25;;;9.98;;
31978;SDS011;18502;43.574;1.276;2023-01-26T20:29:27;19.45;;;11.40;;
31978;SDS011;18502;43.574;1.276;2023-01-26T20:31:53;15.93;;;9.52;;
31978;SDS011;18502;43.574;1.276;2023-01-26T20:34:19;18.45;;;11.02;;
31978;SDS011;18502;43.574;1.276;2023-01-26T20:36:45;16.80;;;9.98;;
31978;SDS011;18502;43.574;1.276;2023-01-26T20:39:13;15.90;;;11.30;;
31978;SDS011;18502;43.574;1.276;2023-01-26T20:41:41;12.20;;;7.03;;
31978;SDS011;18502;43.574;1.276;2023-01-26T20:44:07;15.10;;;10.00;;
31978;SDS011;18502;43.574;1.276;2023-01-26T20:46:35;14.88;;;10.02;;
31978;SDS011;18502;43.574;1.276;2023-01-26T20:49:05;14.25;;;7.85;;
31978;SDS011;18502;43.574;1.276;2023-01-26T20:51:33;12.35;;;7.13;;
31978;SDS011;18502;43.574;1.276;2023-01-26T20:54:00;14.90;;;8.73;;
31978;SDS011;18502;43.574;1.276;2023-01-26T20:56:27;15.63;;;9.45;;
31978;SDS011;18502;43.574;1.276;2023-01-26T20:58:53;12.70;;;7.10;;
31978;SDS011;18502;43.574;1.276;2023-01-26T21:01:20;14.25;;;7.47;;
31978;SDS011;18502;43.574;1.276;2023-01-26T21:03:46;13.23;;;6.95;;
31978;SDS011;18502;43.574;1.276;2023-01-26T21:06:13;14.35;;;9.10;;
31978;SDS011;18502;43.574;1.276;2023-01-26T21:08:42;13.52;;;7.68;;
31978;SDS011;18502;43.574;1.276;2023-01-26T21:11:10;15.45;;;10.05;;
31978;SDS011;18502;43.574;1.276;2023-01-26T21:13:37;15.40;;;8.82;;
31978;SDS011;18502;43.574;1.276;2023-01-26T21:16:06;11.95;;;7.20;;
31978;SDS011;18502;43.574;1.276;2023-01-26T21:18:34;14.88;;;7.63;;
31978;SDS011;18502;43.574;1.276;2023-01-26T21:21:01;13.57;;;7.95;;
31978;SDS011;18502;43.574;1.276;2023-01-26T21:23:29;14.50;;;8.35;;
31978;SDS011;18502;43.574;1.276;2023-01-26T21:25:59;15.23;;;8.43;;
31978;SDS011;18502;43.574;1.276;2023-01-26T21:28:26;17.95;;;9.05;;
31978;SDS011;18502;43.574;1.276;2023-01-26T21:33:25;12.60;;;6.55;;
31978;SDS011;18502;43.574;1.276;2023-01-26T21:35:59;14.05;;;7.93;;
31978;SDS011;18502;43.574;1.276;2023-01-26T21:38:28;12.85;;;6.90;;
31978;SDS011;18502;43.574;1.276;2023-01-26T21:43:28;10.25;;;6.13;;
31978;SDS011;18502;43.574;1.276;2023-01-26T21:45:54;12.20;;;5.97;;
31978;SDS011;18502;43.574;1.276;2023-01-26T21:48:21;9.93;;;5.80;;
31978;SDS011;18502;43.574;1.276;2023-01-26T21:50:59;11.07;;;6.15;;
31978;SDS011;18502;43.574;1.276;2023-01-26T21:53:44;11.95;;;7.13;;
31978;SDS011;18502;43.574;1.276;2023-01-26T21:56:11;12.70;;;6.78;;
31978;SDS011;18502;43.574;1.276;2023-01-26T21:58:40;10.87;;;6.77;;
31978;SDS011;18502;43.574;1.276;2023-01-26T22:01:21;11.40;;;6.47;;
31978;SDS011;18502;43.574;1.276;2023-01-26T22:03:48;12.32;;;5.97;;
31978;SDS011;18502;43.574;1.276;2023-01-26T22:06:15;10.30;;;5.68;;
31978;SDS011;18502;43.574;1.276;2023-01-26T22:08:41;13.75;;;6.45;;
31978;SDS011;18502;43.574;1.276;2023-01-26T22:11:07;12.60;;;7.07;;
31978;SDS011;18502;43.574;1.276;2023-01-26T22:13:33;13.13;;;7.30;;
31978;SDS011;18502;43.574;1.276;2023-01-26T22:16:00;14.45;;;7.47;;
31978;SDS011;18502;43.574;1.276;2023-01-26T22:18:27;14.80;;;6.68;;
31978;SDS011;18502;43.574;1.276;2023-01-26T22:20:53;16.70;;;7.80;;
31978;SDS011;18502;43.574;1.276;2023-01-26T22:23:19;17.60;;;7.88;;
31978;SDS011;18502;43.574;1.276;2023-01-26T22:25:46;18.75;;;7.75;;
31978;SDS011;18502;43.574;1.276;2023-01-26T22:28:11;15.40;;;7.40;;
31978;SDS011;18502;43.574;1.276;2023-01-26T22:30:37;17.10;;;7.28;;
31978;SDS011;18502;43.574;1.276;2023-01-26T22:33:03;17.25;;;8.55;;
31978;SDS011;18502;43.574;1.276;2023-01-26T22:35:30;13.85;;;7.20;;
31978;SDS011;18502;43.574;1.276;2023-01-26T22:37:57;15.38;;;7.40;;
31978;SDS011;18502;43.574;1.276;2023-01-26T22:40:23;16.38;;;7.25;;
31978;SDS011;18502;43.574;1.276;2023-01-26T22:42:50;13.27;;;6.78;;
31978;SDS011;18502;43.574;1.276;2023-01-26T22:45:16;19.08;;;8.15;;
31978;SDS011;18502;43.574;1.276;2023-01-26T22:47:42;17.23;;;7.72;;
31978;SDS011;18502;43.574;1.276;2023-01-26T22:50:08;14.57;;;7.43;;
31978;SDS011;18502;43.574;1.276;2023-01-26T22:52:34;20.40;;;8.25;;
31978;SDS011;18502;43.574;1.276;2023-01-26T22:55:00;17.33;;;7.78;;
31978;SDS011;18502;43.574;1.276;2023-01-26T22:57:26;16.38;;;6.80;;
31978;SDS011;18502;43.574;1.276;2023-01-26T22:59:51;14.70;;;6.55;;
31978;SDS011;18502;43.574;1.276;2023-01-26T23:02:17;12.25;;;6.10;;
31978;SDS011;18502;43.574;1.276;2023-01-26T23:04:43;16.40;;;7.70;;
31978;SDS011;18502;43.574;1.276;2023-01-26T23:07:08;16.77;;;7.20;;
31978;SDS011;18502;43.574;1.276;2023-01-26T23:09:34;15.02;;;6.53;;
31978;SDS011;18502;43.574;1.276;2023-01-26T23:12:00;13.00;;;6.15;;
31978;SDS011;18502;43.574;1.276;2023-01-26T23:14:26;11.27;;;5.68;;
31978;SDS011;18502;43.574;1.276;2023-01-26T23:16:54;11.45;;;5.93;;
31978;SDS011;18502;43.574;1.276;2023-01-26T23:19:20;12.80;;;6.40;;
31978;SDS011;18502;43.574;1.276;2023-01-26T23:21:46;13.65;;;5.50;;
31978;SDS011;18502;43.574;1.276;2023-01-26T23:24:12;10.32;;;5.72;;
31978;SDS011;18502;43.574;1.276;2023-01-26T23:26:37;15.00;;;6.38;;
31978;SDS011;18502;43.574;1.276;2023-01-26T23:29:03;13.15;;;6.25;;
31978;SDS011;18502;43.574;1.276;2023-01-26T23:31:29;15.10;;;6.82;;
31978;SDS011;18502;43.574;1.276;2023-01-26T23:33:56;12.68;;;7.10;;
31978;SDS011;18502;43.574;1.276;2023-01-26T23:36:22;15.00;;;7.68;;
31978;SDS011;18502;43.574;1.276;2023-01-26T23:38:48;12.82;;;5.93;;
31978;SDS011;18502;43.574;1.276;2023-01-26T23:41:14;11.00;;;5.22;;
31978;SDS011;18502;43.574;1.276;2023-01-26T23:43:40;10.23;;;5.63;;
31978;SDS011;18502;43.574;1.276;2023-01-26T23:46:06;9.98;;;5.10;;
31978;SDS011;18502;43.574;1.276;2023-01-26T23:48:33;11.40;;;6.13;;
31978;SDS011;18502;43.574;1.276;2023-01-26T23:51:01;13.45;;;6.40;;
31978;SDS011;18502;43.574;1.276;2023-01-26T23:53:28;9.40;;;5.35;;
31978;SDS011;18502;43.574;1.276;2023-01-26T23:55:55;13.10;;;6.40;;
31978;SDS011;18502;43.574;1.276;2023-01-26T23:58:23;14.45;;;6.57;;
